Onweer radar Meer informatie blitzortung!


Regen radar Meer informatie rain snow radar


Bezoek onze andere website:

Template documentation
and downloads

And another site



METAR rapporten vliegvelden

   
EHVK - Volkel Rnlafb, Netherlands
Afstand tot: ZW 18 km
Gewijzigd: 15-07-2020 05:55
Helder  
Helder  
   Wind: varieert 7.4 km/h
Wind: varieert 7.4 km/h
Temperatuur: 11°C
Dauwpunt: 10°C
Vochtigheid: 94%
Barometer: 1014 hPa
Bewolking: Helder
Zicht: meer dan 10 km
Bewolking: Helder
EHVK 150355Z AUTO VRB04KT 9999 NCD 11/10 Q1014 BLU
EDLV - Niederrhein, Germany
Afstand tot: ZO 25 km
Gewijzigd: 15-07-2020 05:50
Helder  
Helder  
   Wind: WNW 5.6 km/h
Wind: WNW 5.6 km/h
Temperatuur: 11°C
Dauwpunt: 11°C
Vochtigheid: 100%
Barometer: 1014 hPa
Zicht: meer dan 10 km
Bewolking: Helder
EDLV 150350Z 29003KT CAVOK 11/11 Q1014
EHDL - Deelen Rnlafb, Netherlands
Afstand tot: N 35 km
Gewijzigd: 15-07-2020 05:55
Nevel, Bewolking  
Nevel, Bewolking  
   Wind: Westen 1.9 km/h
Wind: Westen 1.9 km/h
Temperatuur: 9°C
Dauwpunt: 9°C
Vochtigheid: 100%
Barometer: 1013 hPa
Bewolking: Bewolking
Zicht: 8 km
Bewolking: Bewolking 14000 ft
EHDL 150355Z AUTO 27001KT 8000 BR OVC140 09/09 Q1013 BLU
EHEH - Eindhoven Rnlafb, Netherlands
Afstand tot: ZW 48 km
Gewijzigd: 15-07-2020 05:55
Nevel, Helder  
Nevel, Helder  
   Wind: varieert 3.7 km/h
Wind: varieert 3.7 km/h
Temperatuur: 10°C
Dauwpunt: 10°C
Vochtigheid: 100%
Barometer: 1014 hPa
Bewolking: Helder
Zicht: 3 km
Bewolking: Helder
EHEH 150355Z AUTO VRB02KT 2700 BR NCD 10/10 Q1014 YLO
EHGR - Gilze-Rijen Rnla, Netherlands
Afstand tot: WZW 70 km
Gewijzigd: 15-07-2020 05:55
Helder  
Helder  
   Wind: Westen 5.6 km/h
Wind: Westen 5.6 km/h
Temperatuur: 10°C
Voelt als: 9°C
Dauwpunt: 9°C
Vochtigheid: 94%
Barometer: 1014 hPa
Bewolking: Helder
Zicht: meer dan 10 km
Bewolking: Helder
EHGR 150355Z AUTO 28003KT 9999 NCD 10/09 Q1014 BLU
EBBL - Kleine-Brogel(Ba, Belgium
Afstand tot: ZZW 71 km
Gewijzigd: 15-07-2020 05:55
Grotendeels bewolkt  
Grotendeels bewolkt  
   Wind: varieert 3.7 km/h
Wind: varieert 3.7 km/h
Temperatuur: 11°C
Dauwpunt: 10°C
Vochtigheid: 94%
Barometer: 1014 hPa
Bewolking: Grotendeels bewolkt
Zicht: meer dan 10 km
Bewolking: Grotendeels bewolkt 16000 ft
EBBL 150355Z AUTO VRB02KT 9999 BKN160/// 11/10 Q1014 BLU

Script ontwikkeld door  Saratoga-weather.org Aangepast voor de template door  Weerstation Leuven